sensor_id;sensor_type;location;lat;lon;timestamp;P1;durP1;ratioP1;P2;durP2;ratioP2
10244;SDS011;5167;52.164;10.530;2022-09-09T00:00:53;1.52;;;1.08;;
10244;SDS011;5167;52.164;10.530;2022-09-09T00:03:27;1.40;;;1.10;;
10244;SDS011;5167;52.164;10.530;2022-09-09T00:08:43;1.13;;;1.02;;
10244;SDS011;5167;52.164;10.530;2022-09-09T00:11:15;1.60;;;0.90;;
10244;SDS011;5167;52.164;10.530;2022-09-09T00:13:51;1.10;;;1.10;;
10244;SDS011;5167;52.164;10.530;2022-09-09T00:16:25;3.53;;;0.82;;
10244;SDS011;5167;52.164;10.530;2022-09-09T00:21:49;1.05;;;0.95;;
10244;SDS011;5167;52.164;10.530;2022-09-09T00:26:53;1.05;;;1.00;;
10244;SDS011;5167;52.164;10.530;2022-09-09T00:29:28;6.32;;;1.10;;
10244;SDS011;5167;52.164;10.530;2022-09-09T00:32:05;1.13;;;0.90;;
10244;SDS011;5167;52.164;10.530;2022-09-09T00:34:46;3.20;;;0.77;;
10244;SDS011;5167;52.164;10.530;2022-09-09T00:37:30;1.02;;;0.90;;
10244;SDS011;5167;52.164;10.530;2022-09-09T00:39:59;2.55;;;1.40;;
10244;SDS011;5167;52.164;10.530;2022-09-09T00:42:41;1.65;;;0.70;;
10244;SDS011;5167;52.164;10.530;2022-09-09T00:48:16;1.00;;;0.80;;
10244;SDS011;5167;52.164;10.530;2022-09-09T00:51:07;3.50;;;1.30;;
10244;SDS011;5167;52.164;10.530;2022-09-09T00:56:24;0.90;;;0.90;;
10244;SDS011;5167;52.164;10.530;2022-09-09T00:59:06;3.75;;;1.00;;
10244;SDS011;5167;52.164;10.530;2022-09-09T01:01:36;2.08;;;0.85;;
10244;SDS011;5167;52.164;10.530;2022-09-09T01:04:01;2.90;;;1.10;;
10244;SDS011;5167;52.164;10.530;2022-09-09T01:06:34;0.93;;;0.93;;
10244;SDS011;5167;52.164;10.530;2022-09-09T01:09:07;2.03;;;1.52;;
10244;SDS011;5167;52.164;10.530;2022-09-09T01:12:01;1.02;;;0.75;;
10244;SDS011;5167;52.164;10.530;2022-09-09T01:28:16;1.23;;;0.90;;
10244;SDS011;5167;52.164;10.530;2022-09-09T01:30:44;5.05;;;1.00;;
10244;SDS011;5167;52.164;10.530;2022-09-09T01:33:14;1.08;;;1.08;;
10244;SDS011;5167;52.164;10.530;2022-09-09T01:38:13;1.60;;;0.90;;
10244;SDS011;5167;52.164;10.530;2022-09-09T01:40:40;1.58;;;0.90;;
10244;SDS011;5167;52.164;10.530;2022-09-09T01:43:05;2.00;;;1.00;;
10244;SDS011;5167;52.164;10.530;2022-09-09T01:45:32;1.63;;;1.20;;
10244;SDS011;5167;52.164;10.530;2022-09-09T01:47:59;1.45;;;1.35;;
10244;SDS011;5167;52.164;10.530;2022-09-09T01:50:25;2.30;;;1.35;;
10244;SDS011;5167;52.164;10.530;2022-09-09T01:52:55;6.13;;;1.25;;
10244;SDS011;5167;52.164;10.530;2022-09-09T01:55:33;1.63;;;1.02;;
10244;SDS011;5167;52.164;10.530;2022-09-09T02:01:04;2.63;;;1.40;;
10244;SDS011;5167;52.164;10.530;2022-09-09T02:03:32;3.28;;;1.52;;
10244;SDS011;5167;52.164;10.530;2022-09-09T02:08:59;2.83;;;1.20;;
10244;SDS011;5167;52.164;10.530;2022-09-09T02:11:28;1.70;;;0.95;;
10244;SDS011;5167;52.164;10.530;2022-09-09T02:14:05;2.15;;;1.00;;
10244;SDS011;5167;52.164;10.530;2022-09-09T02:16:42;2.25;;;1.20;;
10244;SDS011;5167;52.164;10.530;2022-09-09T02:21:50;1.45;;;1.30;;
10244;SDS011;5167;52.164;10.530;2022-09-09T02:24:18;1.58;;;1.08;;
10244;SDS011;5167;52.164;10.530;2022-09-09T02:26:45;3.40;;;1.48;;
10244;SDS011;5167;52.164;10.530;2022-09-09T02:29:14;1.33;;;1.17;;
10244;SDS011;5167;52.164;10.530;2022-09-09T02:31:44;2.63;;;1.30;;
10244;SDS011;5167;52.164;10.530;2022-09-09T02:34:12;1.40;;;1.30;;
10244;SDS011;5167;52.164;10.530;2022-09-09T02:36:41;6.18;;;1.30;;
10244;SDS011;5167;52.164;10.530;2022-09-09T02:39:10;1.63;;;1.30;;
10244;SDS011;5167;52.164;10.530;2022-09-09T02:41:37;2.78;;;1.23;;
10244;SDS011;5167;52.164;10.530;2022-09-09T02:44:12;2.47;;;1.38;;
10244;SDS011;5167;52.164;10.530;2022-09-09T02:52:20;5.35;;;1.75;;
10244;SDS011;5167;52.164;10.530;2022-09-09T02:54:59;2.45;;;1.42;;
10244;SDS011;5167;52.164;10.530;2022-09-09T02:57:30;1.48;;;1.38;;
10244;SDS011;5167;52.164;10.530;2022-09-09T02:59:58;2.40;;;1.40;;
10244;SDS011;5167;52.164;10.530;2022-09-09T03:02:25;4.40;;;1.58;;
10244;SDS011;5167;52.164;10.530;2022-09-09T03:04:51;2.17;;;1.70;;
10244;SDS011;5167;52.164;10.530;2022-09-09T03:07:18;2.38;;;1.15;;
10244;SDS011;5167;52.164;10.530;2022-09-09T03:09:43;1.05;;;1.00;;
10244;SDS011;5167;52.164;10.530;2022-09-09T03:12:09;1.30;;;1.20;;
10244;SDS011;5167;52.164;10.530;2022-09-09T03:14:37;1.33;;;1.23;;
10244;SDS011;5167;52.164;10.530;2022-09-09T03:17:04;7.47;;;1.48;;
10244;SDS011;5167;52.164;10.530;2022-09-09T03:19:30;1.30;;;1.20;;
10244;SDS011;5167;52.164;10.530;2022-09-09T03:21:56;3.60;;;2.40;;
10244;SDS011;5167;52.164;10.530;2022-09-09T03:24:23;1.48;;;1.38;;
10244;SDS011;5167;52.164;10.530;2022-09-09T03:26:49;1.90;;;1.60;;
10244;SDS011;5167;52.164;10.530;2022-09-09T03:29:15;3.13;;;1.42;;
10244;SDS011;5167;52.164;10.530;2022-09-09T03:31:42;1.70;;;1.35;;
10244;SDS011;5167;52.164;10.530;2022-09-09T03:34:08;5.25;;;1.73;;
10244;SDS011;5167;52.164;10.530;2022-09-09T03:36:33;2.33;;;1.50;;
10244;SDS011;5167;52.164;10.530;2022-09-09T03:38:59;3.03;;;1.30;;
10244;SDS011;5167;52.164;10.530;2022-09-09T03:41:25;5.55;;;1.67;;
10244;SDS011;5167;52.164;10.530;2022-09-09T03:43:52;2.58;;;1.58;;
10244;SDS011;5167;52.164;10.530;2022-09-09T03:46:19;2.33;;;1.90;;
10244;SDS011;5167;52.164;10.530;2022-09-09T03:48:45;3.17;;;1.73;;
10244;SDS011;5167;52.164;10.530;2022-09-09T03:51:11;4.35;;;1.77;;
10244;SDS011;5167;52.164;10.530;2022-09-09T03:53:38;2.85;;;1.70;;
10244;SDS011;5167;52.164;10.530;2022-09-09T03:56:04;4.63;;;1.63;;
10244;SDS011;5167;52.164;10.530;2022-09-09T03:58:32;4.78;;;1.90;;
10244;SDS011;5167;52.164;10.530;2022-09-09T04:01:03;5.18;;;1.42;;
10244;SDS011;5167;52.164;10.530;2022-09-09T04:03:31;1.83;;;1.40;;
10244;SDS011;5167;52.164;10.530;2022-09-09T04:05:57;2.83;;;1.63;;
10244;SDS011;5167;52.164;10.530;2022-09-09T04:08:24;2.78;;;1.50;;
10244;SDS011;5167;52.164;10.530;2022-09-09T04:10:50;2.88;;;1.67;;
10244;SDS011;5167;52.164;10.530;2022-09-09T04:13:16;3.35;;;1.83;;
10244;SDS011;5167;52.164;10.530;2022-09-09T04:15:43;4.25;;;1.63;;
10244;SDS011;5167;52.164;10.530;2022-09-09T04:18:10;3.35;;;1.55;;
10244;SDS011;5167;52.164;10.530;2022-09-09T04:20:36;4.18;;;1.55;;
10244;SDS011;5167;52.164;10.530;2022-09-09T04:23:02;3.53;;;1.80;;
10244;SDS011;5167;52.164;10.530;2022-09-09T04:25:28;5.35;;;1.92;;
10244;SDS011;5167;52.164;10.530;2022-09-09T04:27:57;6.47;;;1.67;;
10244;SDS011;5167;52.164;10.530;2022-09-09T04:30:23;1.77;;;1.67;;
10244;SDS011;5167;52.164;10.530;2022-09-09T04:32:50;2.67;;;1.90;;
10244;SDS011;5167;52.164;10.530;2022-09-09T04:35:16;3.97;;;1.80;;
10244;SDS011;5167;52.164;10.530;2022-09-09T04:37:41;4.55;;;2.25;;
10244;SDS011;5167;52.164;10.530;2022-09-09T04:40:07;4.28;;;1.88;;
10244;SDS011;5167;52.164;10.530;2022-09-09T04:42:37;1.65;;;1.55;;
10244;SDS011;5167;52.164;10.530;2022-09-09T04:45:04;1.65;;;1.55;;
10244;SDS011;5167;52.164;10.530;2022-09-09T04:47:31;5.30;;;2.00;;
10244;SDS011;5167;52.164;10.530;2022-09-09T04:49:56;1.95;;;1.77;;
10244;SDS011;5167;52.164;10.530;2022-09-09T04:52:22;3.17;;;1.60;;
10244;SDS011;5167;52.164;10.530;2022-09-09T04:54:48;2.63;;;2.03;;
10244;SDS011;5167;52.164;10.530;2022-09-09T04:57:13;3.50;;;1.83;;
10244;SDS011;5167;52.164;10.530;2022-09-09T04:59:39;3.25;;;1.70;;
10244;SDS011;5167;52.164;10.530;2022-09-09T05:02:05;1.75;;;1.65;;
10244;SDS011;5167;52.164;10.530;2022-09-09T05:04:31;4.18;;;2.00;;
10244;SDS011;5167;52.164;10.530;2022-09-09T05:06:58;3.25;;;2.08;;
10244;SDS011;5167;52.164;10.530;2022-09-09T05:09:24;5.70;;;1.95;;
10244;SDS011;5167;52.164;10.530;2022-09-09T05:11:49;2.55;;;1.50;;
10244;SDS011;5167;52.164;10.530;2022-09-09T05:14:16;4.60;;;2.20;;
10244;SDS011;5167;52.164;10.530;2022-09-09T05:16:42;2.88;;;2.05;;
10244;SDS011;5167;52.164;10.530;2022-09-09T05:19:09;5.03;;;2.08;;
10244;SDS011;5167;52.164;10.530;2022-09-09T05:21:35;3.97;;;1.92;;
10244;SDS011;5167;52.164;10.530;2022-09-09T05:24:01;4.57;;;1.73;;
10244;SDS011;5167;52.164;10.530;2022-09-09T05:26:26;3.15;;;2.17;;
10244;SDS011;5167;52.164;10.530;2022-09-09T05:28:54;2.70;;;2.05;;
10244;SDS011;5167;52.164;10.530;2022-09-09T05:31:20;7.07;;;2.55;;
10244;SDS011;5167;52.164;10.530;2022-09-09T05:33:46;6.35;;;2.13;;
10244;SDS011;5167;52.164;10.530;2022-09-09T05:36:15;4.93;;;2.22;;
10244;SDS011;5167;52.164;10.530;2022-09-09T05:38:42;2.85;;;2.28;;
10244;SDS011;5167;52.164;10.530;2022-09-09T05:41:09;7.70;;;2.03;;
10244;SDS011;5167;52.164;10.530;2022-09-09T05:43:40;4.53;;;2.65;;
10244;SDS011;5167;52.164;10.530;2022-09-09T05:48:35;2.20;;;1.90;;
10244;SDS011;5167;52.164;10.530;2022-09-09T05:51:06;12.85;;;2.20;;
10244;SDS011;5167;52.164;10.530;2022-09-09T05:53:33;2.65;;;1.92;;
10244;SDS011;5167;52.164;10.530;2022-09-09T05:56:03;3.65;;;2.10;;
10244;SDS011;5167;52.164;10.530;2022-09-09T05:58:31;3.30;;;2.28;;
10244;SDS011;5167;52.164;10.530;2022-09-09T06:01:17;7.78;;;2.63;;
10244;SDS011;5167;52.164;10.530;2022-09-09T06:03:51;5.18;;;2.22;;
10244;SDS011;5167;52.164;10.530;2022-09-09T06:06:18;5.05;;;1.92;;
10244;SDS011;5167;52.164;10.530;2022-09-09T06:08:46;5.28;;;2.40;;
10244;SDS011;5167;52.164;10.530;2022-09-09T06:13:38;4.70;;;2.28;;
10244;SDS011;5167;52.164;10.530;2022-09-09T06:16:08;5.30;;;2.25;;
10244;SDS011;5167;52.164;10.530;2022-09-09T06:18:36;5.75;;;2.10;;
10244;SDS011;5167;52.164;10.530;2022-09-09T06:21:04;2.58;;;1.90;;
10244;SDS011;5167;52.164;10.530;2022-09-09T06:23:32;3.08;;;1.70;;
10244;SDS011;5167;52.164;10.530;2022-09-09T06:26:10;4.57;;;1.92;;
10244;SDS011;5167;52.164;10.530;2022-09-09T06:28:37;4.88;;;2.10;;
10244;SDS011;5167;52.164;10.530;2022-09-09T06:31:04;6.05;;;2.03;;
10244;SDS011;5167;52.164;10.530;2022-09-09T06:33:32;3.00;;;2.10;;
10244;SDS011;5167;52.164;10.530;2022-09-09T06:36:01;4.97;;;2.47;;
10244;SDS011;5167;52.164;10.530;2022-09-09T06:38:28;3.55;;;1.92;;
10244;SDS011;5167;52.164;10.530;2022-09-09T06:40:54;2.75;;;1.60;;
10244;SDS011;5167;52.164;10.530;2022-09-09T06:43:21;5.20;;;2.10;;
10244;SDS011;5167;52.164;10.530;2022-09-09T06:48:20;6.13;;;2.38;;
10244;SDS011;5167;52.164;10.530;2022-09-09T06:50:45;3.92;;;1.48;;
10244;SDS011;5167;52.164;10.530;2022-09-09T06:53:11;4.28;;;1.33;;
10244;SDS011;5167;52.164;10.530;2022-09-09T06:55:40;6.55;;;1.70;;
10244;SDS011;5167;52.164;10.530;2022-09-09T06:58:10;3.67;;;1.60;;
10244;SDS011;5167;52.164;10.530;2022-09-09T07:00:35;4.85;;;1.25;;
10244;SDS011;5167;52.164;10.530;2022-09-09T07:03:03;2.33;;;1.20;;
10244;SDS011;5167;52.164;10.530;2022-09-09T07:05:30;3.33;;;1.00;;
10244;SDS011;5167;52.164;10.530;2022-09-09T07:07:55;6.28;;;1.63;;
10244;SDS011;5167;52.164;10.530;2022-09-09T07:10:21;5.40;;;1.50;;
10244;SDS011;5167;52.164;10.530;2022-09-09T07:12:50;3.45;;;1.35;;
10244;SDS011;5167;52.164;10.530;2022-09-09T07:15:17;1.73;;;1.10;;
10244;SDS011;5167;52.164;10.530;2022-09-09T07:17:43;1.67;;;0.93;;
10244;SDS011;5167;52.164;10.530;2022-09-09T07:20:09;3.28;;;1.20;;
10244;SDS011;5167;52.164;10.530;2022-09-09T07:22:36;6.68;;;1.25;;
10244;SDS011;5167;52.164;10.530;2022-09-09T07:25:02;1.40;;;0.63;;
10244;SDS011;5167;52.164;10.530;2022-09-09T07:27:28;3.80;;;1.10;;
10244;SDS011;5167;52.164;10.530;2022-09-09T07:29:53;6.30;;;1.30;;
10244;SDS011;5167;52.164;10.530;2022-09-09T07:32:19;0.80;;;0.80;;
10244;SDS011;5167;52.164;10.530;2022-09-09T07:34:45;3.72;;;0.98;;
10244;SDS011;5167;52.164;10.530;2022-09-09T07:37:15;3.33;;;1.60;;
10244;SDS011;5167;52.164;10.530;2022-09-09T07:39:40;7.65;;;1.52;;
10244;SDS011;5167;52.164;10.530;2022-09-09T07:42:07;11.93;;;1.52;;
10244;SDS011;5167;52.164;10.530;2022-09-09T07:44:36;5.70;;;1.30;;
10244;SDS011;5167;52.164;10.530;2022-09-09T07:47:04;4.13;;;1.30;;
10244;SDS011;5167;52.164;10.530;2022-09-09T07:49:30;3.80;;;1.00;;
10244;SDS011;5167;52.164;10.530;2022-09-09T07:51:56;2.70;;;0.88;;
10244;SDS011;5167;52.164;10.530;2022-09-09T07:54:22;1.13;;;0.90;;
10244;SDS011;5167;52.164;10.530;2022-09-09T07:56:48;1.92;;;1.05;;
10244;SDS011;5167;52.164;10.530;2022-09-09T07:59:14;4.78;;;0.88;;
10244;SDS011;5167;52.164;10.530;2022-09-09T08:01:42;3.30;;;0.98;;
10244;SDS011;5167;52.164;10.530;2022-09-09T08:04:11;2.00;;;0.73;;
10244;SDS011;5167;52.164;10.530;2022-09-09T08:07:02;2.80;;;1.08;;
10244;SDS011;5167;52.164;10.530;2022-09-09T08:09:28;4.63;;;1.10;;
10244;SDS011;5167;52.164;10.530;2022-09-09T08:11:54;2.88;;;0.90;;
10244;SDS011;5167;52.164;10.530;2022-09-09T08:14:22;3.22;;;1.00;;
10244;SDS011;5167;52.164;10.530;2022-09-09T08:16:48;2.95;;;1.08;;
10244;SDS011;5167;52.164;10.530;2022-09-09T08:19:14;8.18;;;1.27;;
10244;SDS011;5167;52.164;10.530;2022-09-09T08:21:41;5.10;;;1.02;;
10244;SDS011;5167;52.164;10.530;2022-09-09T08:24:08;4.03;;;1.08;;
10244;SDS011;5167;52.164;10.530;2022-09-09T08:26:39;4.30;;;1.50;;
10244;SDS011;5167;52.164;10.530;2022-09-09T08:29:07;4.45;;;0.75;;
10244;SDS011;5167;52.164;10.530;2022-09-09T08:31:36;5.35;;;1.00;;
10244;SDS011;5167;52.164;10.530;2022-09-09T08:34:04;4.75;;;0.95;;
10244;SDS011;5167;52.164;10.530;2022-09-09T08:36:32;6.30;;;1.00;;
10244;SDS011;5167;52.164;10.530;2022-09-09T08:39:05;1.63;;;0.95;;
10244;SDS011;5167;52.164;10.530;2022-09-09T08:53:04;1.30;;;0.80;;
10244;SDS011;5167;52.164;10.530;2022-09-09T09:11:40;2.15;;;0.90;;
10244;SDS011;5167;52.164;10.530;2022-09-09T09:19:19;3.05;;;0.85;;
10244;SDS011;5167;52.164;10.530;2022-09-09T09:21:50;4.20;;;1.15;;
10244;SDS011;5167;52.164;10.530;2022-09-09T09:32:40;2.95;;;0.80;;
10244;SDS011;5167;52.164;10.530;2022-09-09T09:35:23;4.33;;;1.00;;
10244;SDS011;5167;52.164;10.530;2022-09-09T09:37:49;2.97;;;1.50;;
10244;SDS011;5167;52.164;10.530;2022-09-09T09:40:16;2.92;;;0.80;;
10244;SDS011;5167;52.164;10.530;2022-09-09T09:42:48;1.02;;;0.70;;
10244;SDS011;5167;52.164;10.530;2022-09-09T09:48:04;1.83;;;0.82;;
10244;SDS011;5167;52.164;10.530;2022-09-09T09:50:31;3.13;;;0.80;;
10244;SDS011;5167;52.164;10.530;2022-09-09T09:52:59;4.80;;;1.05;;
10244;SDS011;5167;52.164;10.530;2022-09-09T09:55:28;3.38;;;0.82;;
10244;SDS011;5167;52.164;10.530;2022-09-09T09:58:05;4.15;;;1.10;;
10244;SDS011;5167;52.164;10.530;2022-09-09T10:00:46;4.82;;;0.95;;
10244;SDS011;5167;52.164;10.530;2022-09-09T10:03:19;1.48;;;0.88;;
10244;SDS011;5167;52.164;10.530;2022-09-09T10:05:49;1.40;;;0.70;;
10244;SDS011;5167;52.164;10.530;2022-09-09T10:08:16;2.08;;;0.93;;
10244;SDS011;5167;52.164;10.530;2022-09-09T10:10:48;2.42;;;0.80;;
10244;SDS011;5167;52.164;10.530;2022-09-09T10:19:34;4.25;;;1.15;;
10244;SDS011;5167;52.164;10.530;2022-09-09T10:22:05;4.45;;;0.80;;
10244;SDS011;5167;52.164;10.530;2022-09-09T10:30:19;3.63;;;1.20;;
10244;SDS011;5167;52.164;10.530;2022-09-09T10:38:18;2.03;;;0.88;;
10244;SDS011;5167;52.164;10.530;2022-09-09T10:41:11;4.90;;;0.90;;
10244;SDS011;5167;52.164;10.530;2022-09-09T10:46:58;3.55;;;1.90;;
10244;SDS011;5167;52.164;10.530;2022-09-09T10:52:32;3.28;;;0.90;;
10244;SDS011;5167;52.164;10.530;2022-09-09T10:57:43;9.07;;;1.17;;
10244;SDS011;5167;52.164;10.530;2022-09-09T11:00:18;2.70;;;0.98;;
10244;SDS011;5167;52.164;10.530;2022-09-09T11:02:44;3.00;;;0.95;;
10244;SDS011;5167;52.164;10.530;2022-09-09T11:05:27;1.25;;;0.77;;
10244;SDS011;5167;52.164;10.530;2022-09-09T11:08:05;10.80;;;1.15;;
10244;SDS011;5167;52.164;10.530;2022-09-09T11:10:43;3.65;;;0.90;;
10244;SDS011;5167;52.164;10.530;2022-09-09T11:13:15;4.20;;;1.15;;
10244;SDS011;5167;52.164;10.530;2022-09-09T11:15:49;5.22;;;1.02;;
10244;SDS011;5167;52.164;10.530;2022-09-09T11:18:21;3.15;;;0.80;;
10244;SDS011;5167;52.164;10.530;2022-09-09T11:20:48;4.15;;;1.33;;
10244;SDS011;5167;52.164;10.530;2022-09-09T11:23:22;5.00;;;0.82;;
10244;SDS011;5167;52.164;10.530;2022-09-09T11:25:54;2.28;;;0.65;;
10244;SDS011;5167;52.164;10.530;2022-09-09T11:42:20;1.42;;;0.80;;
10244;SDS011;5167;52.164;10.530;2022-09-09T11:44:49;4.10;;;0.80;;
10244;SDS011;5167;52.164;10.530;2022-09-09T11:47:26;3.72;;;1.13;;
10244;SDS011;5167;52.164;10.530;2022-09-09T11:50:10;4.50;;;1.38;;
10244;SDS011;5167;52.164;10.530;2022-09-09T11:55:39;3.75;;;0.90;;
10244;SDS011;5167;52.164;10.530;2022-09-09T12:00:37;4.63;;;1.00;;
10244;SDS011;5167;52.164;10.530;2022-09-09T12:03:08;2.08;;;0.65;;
10244;SDS011;5167;52.164;10.530;2022-09-09T12:08:46;1.77;;;0.52;;
10244;SDS011;5167;52.164;10.530;2022-09-09T12:11:23;2.05;;;0.90;;
10244;SDS011;5167;52.164;10.530;2022-09-09T12:13:54;4.75;;;0.93;;
10244;SDS011;5167;52.164;10.530;2022-09-09T12:16:34;4.65;;;1.15;;
10244;SDS011;5167;52.164;10.530;2022-09-09T12:19:19;5.95;;;1.10;;
10244;SDS011;5167;52.164;10.530;2022-09-09T12:25:00;6.40;;;1.75;;
10244;SDS011;5167;52.164;10.530;2022-09-09T12:27:36;3.03;;;0.90;;
10244;SDS011;5167;52.164;10.530;2022-09-09T12:30:11;6.30;;;0.90;;
10244;SDS011;5167;52.164;10.530;2022-09-09T12:32:39;2.03;;;0.80;;
10244;SDS011;5167;52.164;10.530;2022-09-09T12:35:12;1.90;;;0.70;;
10244;SDS011;5167;52.164;10.530;2022-09-09T12:37:46;4.85;;;0.95;;
10244;SDS011;5167;52.164;10.530;2022-09-09T12:40:19;2.67;;;1.02;;
10244;SDS011;5167;52.164;10.530;2022-09-09T12:42:47;2.90;;;0.77;;
10244;SDS011;5167;52.164;10.530;2022-09-09T12:45:20;2.47;;;0.82;;
10244;SDS011;5167;52.164;10.530;2022-09-09T12:50:37;1.73;;;1.10;;
10244;SDS011;5167;52.164;10.530;2022-09-09T12:58:23;2.38;;;0.90;;
10244;SDS011;5167;52.164;10.530;2022-09-09T13:00:51;1.85;;;0.80;;
10244;SDS011;5167;52.164;10.530;2022-09-09T13:03:19;1.85;;;0.73;;
10244;SDS011;5167;52.164;10.530;2022-09-09T13:05:46;2.38;;;1.60;;
10244;SDS011;5167;52.164;10.530;2022-09-09T13:08:13;3.17;;;0.70;;
10244;SDS011;5167;52.164;10.530;2022-09-09T13:10:50;2.22;;;0.57;;
10244;SDS011;5167;52.164;10.530;2022-09-09T13:13:23;1.02;;;0.65;;
10244;SDS011;5167;52.164;10.530;2022-09-09T13:15:56;2.03;;;0.90;;
10244;SDS011;5167;52.164;10.530;2022-09-09T13:18:24;3.70;;;1.27;;
10244;SDS011;5167;52.164;10.530;2022-09-09T13:20:54;4.32;;;1.15;;
10244;SDS011;5167;52.164;10.530;2022-09-09T13:23:22;0.63;;;0.40;;
10244;SDS011;5167;52.164;10.530;2022-09-09T13:25:53;4.60;;;1.10;;
10244;SDS011;5167;52.164;10.530;2022-09-09T13:28:24;1.38;;;0.80;;
10244;SDS011;5167;52.164;10.530;2022-09-09T13:30:56;2.22;;;1.10;;
10244;SDS011;5167;52.164;10.530;2022-09-09T13:33:29;1.98;;;0.80;;
10244;SDS011;5167;52.164;10.530;2022-09-09T13:36:08;3.20;;;1.33;;
10244;SDS011;5167;52.164;10.530;2022-09-09T13:38:37;4.13;;;0.70;;
10244;SDS011;5167;52.164;10.530;2022-09-09T13:41:04;2.22;;;1.27;;
10244;SDS011;5167;52.164;10.530;2022-09-09T13:43:34;8.43;;;1.30;;
10244;SDS011;5167;52.164;10.530;2022-09-09T13:46:03;4.00;;;1.02;;
10244;SDS011;5167;52.164;10.530;2022-09-09T13:48:31;4.03;;;0.80;;
10244;SDS011;5167;52.164;10.530;2022-09-09T13:50:57;4.28;;;0.88;;
10244;SDS011;5167;52.164;10.530;2022-09-09T13:53:24;1.75;;;0.68;;
10244;SDS011;5167;52.164;10.530;2022-09-09T13:55:50;0.90;;;0.63;;
10244;SDS011;5167;52.164;10.530;2022-09-09T13:58:17;0.50;;;0.50;;
10244;SDS011;5167;52.164;10.530;2022-09-09T14:00:44;2.65;;;0.50;;
10244;SDS011;5167;52.164;10.530;2022-09-09T14:03:10;0.85;;;0.60;;
10244;SDS011;5167;52.164;10.530;2022-09-09T14:05:36;4.28;;;0.60;;
10244;SDS011;5167;52.164;10.530;2022-09-09T14:08:06;4.72;;;1.30;;
10244;SDS011;5167;52.164;10.530;2022-09-09T14:10:32;3.38;;;0.45;;
10244;SDS011;5167;52.164;10.530;2022-09-09T14:13:01;1.13;;;0.70;;
10244;SDS011;5167;52.164;10.530;2022-09-09T14:15:27;3.75;;;1.92;;
10244;SDS011;5167;52.164;10.530;2022-09-09T14:17:53;3.85;;;0.90;;
10244;SDS011;5167;52.164;10.530;2022-09-09T14:20:19;1.42;;;1.02;;
10244;SDS011;5167;52.164;10.530;2022-09-09T14:22:45;1.27;;;0.60;;
10244;SDS011;5167;52.164;10.530;2022-09-09T14:25:11;2.60;;;0.82;;
10244;SDS011;5167;52.164;10.530;2022-09-09T14:27:40;3.75;;;1.00;;
10244;SDS011;5167;52.164;10.530;2022-09-09T14:30:07;2.05;;;0.80;;
10244;SDS011;5167;52.164;10.530;2022-09-09T14:32:33;2.28;;;0.93;;
10244;SDS011;5167;52.164;10.530;2022-09-09T14:34:59;3.08;;;0.80;;
10244;SDS011;5167;52.164;10.530;2022-09-09T14:37:24;2.38;;;0.80;;
10244;SDS011;5167;52.164;10.530;2022-09-09T14:39:51;3.25;;;0.90;;
10244;SDS011;5167;52.164;10.530;2022-09-09T14:42:17;1.33;;;0.90;;
10244;SDS011;5167;52.164;10.530;2022-09-09T14:44:43;5.40;;;0.85;;
10244;SDS011;5167;52.164;10.530;2022-09-09T14:47:09;3.53;;;0.70;;
10244;SDS011;5167;52.164;10.530;2022-09-09T14:49:35;5.75;;;1.83;;
10244;SDS011;5167;52.164;10.530;2022-09-09T14:52:02;3.13;;;1.02;;
10244;SDS011;5167;52.164;10.530;2022-09-09T14:54:28;5.32;;;2.38;;
10244;SDS011;5167;52.164;10.530;2022-09-09T14:56:54;1.60;;;1.05;;
10244;SDS011;5167;52.164;10.530;2022-09-09T14:59:19;1.30;;;0.90;;
10244;SDS011;5167;52.164;10.530;2022-09-09T15:01:45;1.60;;;1.13;;
10244;SDS011;5167;52.164;10.530;2022-09-09T15:04:11;4.28;;;1.25;;
10244;SDS011;5167;52.164;10.530;2022-09-09T15:06:39;5.15;;;1.30;;
10244;SDS011;5167;52.164;10.530;2022-09-09T15:09:05;6.15;;;0.95;;
10244;SDS011;5167;52.164;10.530;2022-09-09T15:11:33;2.65;;;0.80;;
10244;SDS011;5167;52.164;10.530;2022-09-09T15:14:02;2.72;;;0.90;;
10244;SDS011;5167;52.164;10.530;2022-09-09T15:16:29;2.88;;;1.08;;
10244;SDS011;5167;52.164;10.530;2022-09-09T15:18:58;2.60;;;1.13;;
10244;SDS011;5167;52.164;10.530;2022-09-09T15:21:29;1.80;;;0.77;;
10244;SDS011;5167;52.164;10.530;2022-09-09T15:23:57;6.03;;;1.55;;
10244;SDS011;5167;52.164;10.530;2022-09-09T15:26:22;4.82;;;1.02;;
10244;SDS011;5167;52.164;10.530;2022-09-09T15:28:48;3.47;;;1.20;;
10244;SDS011;5167;52.164;10.530;2022-09-09T15:31:24;3.75;;;1.10;;
10244;SDS011;5167;52.164;10.530;2022-09-09T15:33:54;4.43;;;1.20;;
10244;SDS011;5167;52.164;10.530;2022-09-09T15:36:28;5.95;;;1.35;;
10244;SDS011;5167;52.164;10.530;2022-09-09T15:39:02;3.03;;;1.30;;
10244;SDS011;5167;52.164;10.530;2022-09-09T15:41:29;3.13;;;1.95;;
10244;SDS011;5167;52.164;10.530;2022-09-09T15:43:58;7.53;;;1.63;;
10244;SDS011;5167;52.164;10.530;2022-09-09T15:46:29;2.55;;;1.15;;
10244;SDS011;5167;52.164;10.530;2022-09-09T15:51:34;3.28;;;1.33;;
10244;SDS011;5167;52.164;10.530;2022-09-09T15:54:00;5.10;;;1.52;;
10244;SDS011;5167;52.164;10.530;2022-09-09T15:56:26;4.55;;;1.25;;
10244;SDS011;5167;52.164;10.530;2022-09-09T15:58:53;4.40;;;1.27;;
10244;SDS011;5167;52.164;10.530;2022-09-09T16:01:20;4.47;;;1.48;;
10244;SDS011;5167;52.164;10.530;2022-09-09T16:03:45;4.55;;;1.63;;
10244;SDS011;5167;52.164;10.530;2022-09-09T16:06:15;6.78;;;2.63;;
10244;SDS011;5167;52.164;10.530;2022-09-09T16:08:43;5.00;;;1.13;;
10244;SDS011;5167;52.164;10.530;2022-09-09T16:11:11;3.25;;;1.25;;
10244;SDS011;5167;52.164;10.530;2022-09-09T16:13:40;3.13;;;1.27;;
10244;SDS011;5167;52.164;10.530;2022-09-09T16:16:07;3.55;;;0.95;;
10244;SDS011;5167;52.164;10.530;2022-09-09T16:18:38;5.00;;;1.00;;
10244;SDS011;5167;52.164;10.530;2022-09-09T16:21:12;4.05;;;1.20;;
10244;SDS011;5167;52.164;10.530;2022-09-09T16:23:40;1.70;;;1.00;;
10244;SDS011;5167;52.164;10.530;2022-09-09T16:26:07;2.47;;;0.88;;
10244;SDS011;5167;52.164;10.530;2022-09-09T16:28:37;4.13;;;1.58;;
10244;SDS011;5167;52.164;10.530;2022-09-09T16:31:24;3.60;;;1.02;;
10244;SDS011;5167;52.164;10.530;2022-09-09T16:33:48;5.05;;;1.05;;
10244;SDS011;5167;52.164;10.530;2022-09-09T16:36:16;1.35;;;0.82;;
10244;SDS011;5167;52.164;10.530;2022-09-09T16:38:44;2.60;;;0.90;;
10244;SDS011;5167;52.164;10.530;2022-09-09T16:41:10;1.77;;;0.90;;
10244;SDS011;5167;52.164;10.530;2022-09-09T16:43:38;5.32;;;0.82;;
10244;SDS011;5167;52.164;10.530;2022-09-09T16:46:12;4.53;;;1.20;;
10244;SDS011;5167;52.164;10.530;2022-09-09T16:48:42;2.50;;;0.90;;
10244;SDS011;5167;52.164;10.530;2022-09-09T16:51:13;6.63;;;1.08;;
10244;SDS011;5167;52.164;10.530;2022-09-09T16:53:40;2.05;;;0.90;;
10244;SDS011;5167;52.164;10.530;2022-09-09T16:56:10;2.10;;;0.80;;
10244;SDS011;5167;52.164;10.530;2022-09-09T16:58:37;1.23;;;0.82;;
10244;SDS011;5167;52.164;10.530;2022-09-09T17:01:03;4.60;;;1.30;;
10244;SDS011;5167;52.164;10.530;2022-09-09T17:03:30;1.85;;;1.10;;
10244;SDS011;5167;52.164;10.530;2022-09-09T17:05:56;1.10;;;1.00;;
10244;SDS011;5167;52.164;10.530;2022-09-09T17:08:24;2.28;;;1.05;;
10244;SDS011;5167;52.164;10.530;2022-09-09T17:10:49;2.17;;;1.00;;
10244;SDS011;5167;52.164;10.530;2022-09-09T17:13:15;2.55;;;1.23;;
10244;SDS011;5167;52.164;10.530;2022-09-09T17:15:44;4.05;;;2.25;;
10244;SDS011;5167;52.164;10.530;2022-09-09T17:18:11;2.55;;;1.67;;
10244;SDS011;5167;52.164;10.530;2022-09-09T17:20:37;3.42;;;1.30;;
10244;SDS011;5167;52.164;10.530;2022-09-09T17:23:05;1.70;;;1.10;;
10244;SDS011;5167;52.164;10.530;2022-09-09T17:25:32;2.42;;;1.40;;
10244;SDS011;5167;52.164;10.530;2022-09-09T17:27:58;3.00;;;0.82;;
10244;SDS011;5167;52.164;10.530;2022-09-09T17:30:25;2.03;;;0.70;;
10244;SDS011;5167;52.164;10.530;2022-09-09T17:32:51;2.80;;;0.73;;
10244;SDS011;5167;52.164;10.530;2022-09-09T17:35:16;4.85;;;0.88;;
10244;SDS011;5167;52.164;10.530;2022-09-09T17:37:42;0.57;;;0.55;;